Time;durP1;ratioP1;P1;durP2;ratioP2;P2;SDS_P1;SDS_P2;PMS_P1;PMS_P2;Temp;Humidity;BMP_temperature;BMP_pressure;BME280_temperature;BME280_humidity;BME280_pressure;Samples;Min_cycle;Max_cycle;Signal;HPM_P1;HPM_P2
2023/03/22 00:00:49;;;;;;;7.40;3.83;;;;;;;11.43;65.11;100436.03;4158539;28;20088;-71
2023/03/22 00:02:52;;;;;;;7.38;3.78;;;;;;;11.47;64.70;100437.81;4159499;28;20037;-70
2023/03/22 00:04:55;;;;;;;6.70;3.80;;;;;;;11.45;65.10;100430.00;4156912;28;20128;-70
2023/03/22 00:06:58;;;;;;;7.63;3.92;;;;;;;11.44;65.23;100435.19;4160561;28;20488;-70
2023/03/22 00:09:01;;;;;;;5.22;3.28;;;;;;;11.43;65.31;100433.44;4161476;28;20041;-70
2023/03/22 00:11:05;;;;;;;7.45;4.32;;;;;;;11.48;65.86;100440.44;4159913;28;20095;-70
2023/03/22 00:13:09;;;;;;;6.25;3.95;;;;;;;11.41;65.37;100433.41;4154099;28;20037;-70
2023/03/22 00:15:14;;;;;;;6.25;3.53;;;;;;;11.42;65.65;100435.16;4163774;28;20041;-70
2023/03/22 00:17:17;;;;;;;6.18;3.38;;;;;;;11.43;66.32;100429.09;4166052;28;20083;-70
2023/03/22 00:19:20;;;;;;;7.13;4.15;;;;;;;11.45;66.15;100429.13;4169620;28;20041;-70
2023/03/22 00:21:23;;;;;;;7.43;4.20;;;;;;;11.47;65.43;100428.25;4151114;28;20424;-70
2023/03/22 00:23:27;;;;;;;5.57;3.80;;;;;;;11.48;65.30;100424.81;4175401;28;20041;-70
2023/03/22 00:25:30;;;;;;;4.97;3.92;;;;;;;11.48;65.41;100426.56;4169810;28;20049;-70
2023/03/22 00:27:33;;;;;;;10.07;4.10;;;;;;;11.49;65.57;100426.56;4164704;28;20464;-71
2023/03/22 00:29:36;;;;;;;7.72;3.92;;;;;;;11.47;65.20;100423.06;4166798;28;20061;-70
2023/03/22 00:31:40;;;;;;;5.57;4.00;;;;;;;11.52;64.75;100415.28;4171248;28;20053;-71
2023/03/22 00:33:44;;;;;;;10.15;4.35;;;;;;;11.52;65.29;100416.19;4167739;28;20040;-72
2023/03/22 00:35:51;;;;;;;8.82;4.47;;;;;;;11.51;65.22;100414.44;4175818;28;20048;-71
2023/03/22 00:37:54;;;;;;;8.07;3.80;;;;;;;11.57;65.00;100410.16;4162559;28;20034;-70
2023/03/22 00:39:57;;;;;;;7.88;4.15;;;;;;;11.51;65.30;100414.44;4161693;28;20057;-70
2023/03/22 00:42:00;;;;;;;10.93;3.88;;;;;;;11.48;65.49;100410.94;4167924;28;20559;-70
2023/03/22 00:44:03;;;;;;;6.47;4.25;;;;;;;11.48;64.90;100409.19;4173313;28;20029;-70
2023/03/22 00:46:07;;;;;;;9.75;4.95;;;;;;;11.52;64.51;100405.75;4179784;28;20655;-70
2023/03/22 00:48:11;;;;;;;7.97;4.60;;;;;;;11.54;64.88;100397.97;4169317;28;20107;-70
2023/03/22 00:50:14;;;;;;;8.45;4.82;;;;;;;11.57;64.67;100402.34;4168336;28;20037;-70
2023/03/22 00:52:17;;;;;;;7.90;5.28;;;;;;;11.56;64.52;100397.97;4171298;28;20440;-71
2023/03/22 00:54:20;;;;;;;8.23;4.55;;;;;;;11.58;64.44;100398.84;4169909;28;20092;-70
2023/03/22 00:56:24;;;;;;;6.45;4.10;;;;;;;11.51;64.71;100391.00;4176512;28;20037;-71
2023/03/22 00:58:35;;;;;;;6.90;3.60;;;;;;;11.53;64.63;100380.59;4171594;28;20087;-71
2023/03/22 01:00:38;;;;;;;7.90;5.20;;;;;;;11.50;64.38;100373.63;4167820;28;20044;-71
2023/03/22 01:02:44;;;;;;;12.95;6.38;;;;;;;11.50;64.76;100365.81;4166063;28;20576;-70
2023/03/22 01:04:53;;;;;;;8.02;4.18;;;;;;;11.49;64.20;100371.91;4160689;28;20598;-71
2023/03/22 01:06:58;;;;;;;11.30;5.35;;;;;;;11.44;64.39;100368.38;4162298;28;20034;-71
2023/03/22 01:09:01;;;;;;;6.63;4.57;;;;;;;11.44;65.02;100368.38;4154954;28;20050;-71
2023/03/22 01:11:06;;;;;;;8.82;4.80;;;;;;;11.43;64.73;100377.03;4163633;28;20485;-70
2023/03/22 01:13:10;;;;;;;6.10;4.15;;;;;;;11.42;65.22;100383.09;4163748;28;20127;-71
2023/03/22 01:15:13;;;;;;;8.38;4.78;;;;;;;11.42;65.07;100377.91;4170067;28;20037;-70
2023/03/22 01:17:16;;;;;;;6.53;4.38;;;;;;;11.40;65.36;100374.41;4171861;28;20055;-70
2023/03/22 01:19:19;;;;;;;6.43;4.97;;;;;;;11.44;65.87;100368.38;4163812;28;20108;-71
2023/03/22 01:21:24;;;;;;;6.55;4.75;;;;;;;11.41;65.85;100368.34;4164496;28;20065;-70
2023/03/22 01:23:27;;;;;;;7.57;4.70;;;;;;;11.41;65.69;100363.13;4149167;28;20046;-71
2023/03/22 01:25:30;;;;;;;9.43;5.45;;;;;;;11.41;66.30;100365.75;4164237;28;21187;-70
2023/03/22 01:27:33;;;;;;;6.95;4.85;;;;;;;11.44;66.36;100359.69;4156024;28;20037;-70
2023/03/22 01:29:36;;;;;;;8.32;4.90;;;;;;;11.48;65.49;100362.34;4162026;28;20120;-71
2023/03/22 01:31:39;;;;;;;14.35;4.68;;;;;;;11.46;65.88;100363.16;4163462;28;20050;-72
2023/03/22 01:33:42;;;;;;;6.70;4.72;;;;;;;11.44;66.31;100365.75;4155723;28;20448;-71
2023/03/22 01:35:45;;;;;;;7.07;5.10;;;;;;;11.48;65.59;100359.72;4162143;28;20037;-71
2023/03/22 01:37:49;;;;;;;6.78;5.00;;;;;;;11.51;65.94;100366.69;4161729;28;20042;-71
2023/03/22 01:39:54;;;;;;;11.13;5.38;;;;;;;11.51;65.80;100364.09;4162321;28;20042;-71
2023/03/22 01:41:57;;;;;;;8.70;4.78;;;;;;;11.49;66.40;100371.00;4176814;28;20091;-71
2023/03/22 01:44:14;;;;;;;8.95;5.32;;;;;;;11.51;65.99;100361.50;4162512;28;20061;-71
2023/03/22 01:46:17;;;;;;;8.23;5.07;;;;;;;11.47;66.73;100362.31;4146685;28;20046;-71
2023/03/22 01:48:25;;;;;;;7.22;4.70;;;;;;;11.45;66.11;100357.09;4162485;28;20575;-71
2023/03/22 01:50:30;;;;;;;7.88;4.95;;;;;;;11.41;66.45;100360.53;4162613;28;20088;-71
2023/03/22 01:52:33;;;;;;;25.05;5.60;;;;;;;11.41;66.52;100357.06;4161724;28;20547;-71
2023/03/22 01:54:44;;;;;;;9.90;5.50;;;;;;;11.33;66.52;100352.66;4162380;28;20042;-71
2023/03/22 01:57:03;;;;;;;8.82;4.97;;;;;;;11.30;66.72;100363.03;4163310;28;20435;-71
2023/03/22 01:59:15;;;;;;;7.00;4.28;;;;;;;11.31;66.66;100363.91;4141819;28;20038;-71
2023/03/22 02:01:34;;;;;;;8.73;4.57;;;;;;;11.29;66.10;100363.03;4177679;28;20504;-71
2023/03/22 02:03:47;;;;;;;9.15;4.55;;;;;;;11.30;66.16;100356.94;4162120;28;20025;-71
2023/03/22 02:05:50;;;;;;;8.77;5.13;;;;;;;11.36;66.31;100351.81;4159485;28;20116;-71
2023/03/22 02:07:56;;;;;;;7.30;4.80;;;;;;;11.35;65.78;100361.34;4158262;28;20061;-71
2023/03/22 02:10:01;;;;;;;10.10;5.40;;;;;;;11.30;66.09;100354.34;4156234;28;20083;-70
2023/03/22 02:12:21;;;;;;;;;;;;;;;11.21;66.29;100357.72;4163213;28;20448;-70
2023/03/22 02:14:57;;;;;;;6.50;4.70;;;;;;;11.18;66.37;100357.72;4163418;28;19983;-70
2023/03/22 02:17:28;;;;;;;8.02;4.85;;;;;;;11.14;66.65;100349.00;4156326;28;20563;-71
2023/03/22 02:20:04;;;;;;;8.70;4.72;;;;;;;11.17;67.17;100349.03;4162523;28;20095;-71
2023/03/22 02:22:38;;;;;;;6.40;4.32;;;;;;;11.21;66.42;100349.06;4157620;28;20543;-71
2023/03/22 02:25:07;;;;;;;8.68;4.63;;;;;;;11.23;65.81;100347.34;4172857;28;20481;-71
2023/03/22 02:27:40;;;;;;;8.48;5.00;;;;;;;11.25;66.13;100343.91;4165821;28;20404;-70
2023/03/22 02:29:47;;;;;;;8.13;4.38;;;;;;;11.24;65.91;100341.28;4166267;28;20091;-70
2023/03/22 02:32:35;;;;;;;6.63;4.47;;;;;;;11.27;66.18;100342.19;4171158;28;20065;-70
2023/03/22 02:34:56;;;;;;;7.25;4.20;;;;;;;11.23;66.10;100342.13;4170608;28;20037;-70
2023/03/22 02:37:33;;;;;;;8.35;5.07;;;;;;;11.22;66.12;100341.28;4157806;28;20091;-70
2023/03/22 02:39:42;;;;;;;9.15;4.85;;;;;;;11.26;66.71;100334.38;4169399;22;20041;-64
2023/03/22 02:41:59;;;;;;;8.25;4.28;;;;;;;11.25;66.55;100337.84;4141628;28;20490;-64
2023/03/22 02:44:12;;;;;;;7.03;4.20;;;;;;;11.25;66.42;100340.44;4138646;28;20049;-64
2023/03/22 02:46:22;;;;;;;9.32;4.70;;;;;;;11.23;66.69;100335.22;4128840;28;20117;-64
2023/03/22 02:48:27;;;;;;;6.20;4.40;;;;;;;11.24;67.10;100330.88;4145829;28;20045;-64
2023/03/22 02:50:38;;;;;;;7.07;3.95;;;;;;;11.28;66.93;100332.66;4171304;28;20084;-64
2023/03/22 02:52:45;;;;;;;5.75;3.92;;;;;;;11.27;67.10;100325.69;4144562;28;20056;-64
2023/03/22 02:54:55;;;;;;;9.52;4.90;;;;;;;11.30;67.19;100320.50;4165997;28;20046;-64
2023/03/22 02:57:02;;;;;;;7.72;4.20;;;;;;;11.26;66.53;100329.19;4152170;28;20048;-64
2023/03/22 02:59:08;;;;;;;6.22;3.50;;;;;;;11.27;66.50;100330.91;4155220;28;20036;-64
2023/03/22 03:01:18;;;;;;;7.57;4.30;;;;;;;11.28;66.55;100333.50;4158356;28;20089;-64
2023/03/22 03:03:24;;;;;;;6.32;3.85;;;;;;;11.27;66.34;100325.69;4155410;28;20535;-63
2023/03/22 03:05:30;;;;;;;5.70;3.80;;;;;;;11.26;66.66;100319.63;4148483;28;20037;-64
2023/03/22 03:07:34;;;;;;;9.27;4.18;;;;;;;11.29;67.26;100318.78;4132714;28;20049;-63
2023/03/22 03:09:40;;;;;;;5.50;3.92;;;;;;;11.33;66.75;100320.53;4160896;28;20096;-63
2023/03/22 03:11:45;;;;;;;8.35;4.50;;;;;;;11.31;66.59;100317.91;4151237;28;20037;-63
2023/03/22 03:13:48;;;;;;;5.28;3.45;;;;;;;11.30;66.81;100316.19;4157710;28;20096;-63
2023/03/22 03:15:54;;;;;;;8.23;4.30;;;;;;;11.33;66.15;100320.53;4155293;28;20034;-63
2023/03/22 03:18:13;;;;;;;8.13;4.75;;;;;;;11.38;66.32;100318.88;4144941;28;20038;-63
2023/03/22 03:20:28;;;;;;;8.18;4.00;;;;;;;11.39;65.58;100323.22;4141069;28;20042;-63
2023/03/22 03:22:44;;;;;;;9.85;4.93;;;;;;;11.40;66.48;100319.72;4145483;28;20053;-63
2023/03/22 03:24:51;;;;;;;4.97;3.45;;;;;;;11.29;66.08;100327.47;4141190;28;20092;-63
2023/03/22 03:27:02;;;;;;;7.90;4.03;;;;;;;11.30;65.83;100323.13;4144755;28;20037;-63
2023/03/22 03:29:11;;;;;;;8.23;4.18;;;;;;;11.26;66.12;100318.78;4145965;28;20042;-63
2023/03/22 03:31:25;;;;;;;6.18;4.25;;;;;;;11.27;66.08;100320.50;4144277;28;20041;-63
2023/03/22 03:33:32;;;;;;;7.55;3.45;;;;;;;11.29;66.17;100314.44;4144032;28;20045;-63
2023/03/22 03:35:44;;;;;;;5.07;3.47;;;;;;;11.28;66.50;100319.63;4142870;28;20084;-63
2023/03/22 03:37:51;;;;;;;5.60;3.42;;;;;;;11.27;66.21;100323.09;4161419;28;20045;-63
2023/03/22 03:39:58;;;;;;;6.35;3.70;;;;;;;11.29;66.76;100321.41;4150469;28;20052;-63
2023/03/22 03:42:06;;;;;;;5.53;4.07;;;;;;;11.28;67.05;100330.06;4140353;28;20041;-63
2023/03/22 03:44:10;;;;;;;8.65;3.78;;;;;;;11.27;66.29;100320.50;4147676;28;20037;-63
2023/03/22 03:46:13;;;;;;;7.72;4.68;;;;;;;11.26;66.70;100317.03;4145005;28;20491;-63
2023/03/22 03:48:20;;;;;;;8.02;4.40;;;;;;;11.23;67.26;100313.50;4145805;28;20038;-63
2023/03/22 03:50:24;;;;;;;6.63;3.95;;;;;;;11.20;66.89;100323.88;4156089;28;20296;-63
2023/03/22 03:52:30;;;;;;;8.80;4.15;;;;;;;11.16;66.73;100318.66;4144470;28;20068;-63
2023/03/22 03:54:33;;;;;;;7.15;4.60;;;;;;;11.15;67.55;100314.31;4143349;28;20038;-63
2023/03/22 03:56:37;;;;;;;5.93;4.07;;;;;;;11.14;66.97;100320.38;4144705;28;20030;-63
2023/03/22 03:58:41;;;;;;;9.23;4.65;;;;;;;11.18;67.67;100309.16;4128191;28;20356;-63
2023/03/22 04:00:45;;;;;;;8.55;4.55;;;;;;;11.17;66.69;100317.81;4151152;28;20038;-63
2023/03/22 04:02:51;;;;;;;7.28;4.55;;;;;;;11.17;67.19;100315.22;4132679;28;20042;-63
2023/03/22 04:05:18;;;;;;;8.40;5.60;;;;;;;11.18;67.10;100310.88;4143918;28;20038;-64
2023/03/22 04:07:21;;;;;;;9.38;5.30;;;;;;;11.16;67.50;100317.81;4148621;28;20045;-63
2023/03/22 04:09:25;;;;;;;8.80;4.88;;;;;;;11.17;67.35;100309.16;4136283;28;20497;-63
2023/03/22 04:11:33;;;;;;;10.23;5.28;;;;;;;11.07;66.88;100312.50;4159769;28;20165;-64
2023/03/22 04:13:37;;;;;;;9.45;6.03;;;;;;;11.02;67.26;100307.25;4144120;28;20080;-63
2023/03/22 04:15:46;;;;;;;10.50;5.35;;;;;;;10.97;67.20;100299.41;4141816;28;20077;-64
2023/03/22 04:17:52;;;;;;;9.38;6.07;;;;;;;10.96;66.81;100299.38;4142595;28;20505;-64
2023/03/22 04:19:57;;;;;;;10.70;6.18;;;;;;;10.96;67.23;100299.38;4146192;28;20425;-64
2023/03/22 04:22:01;;;;;;;9.95;6.43;;;;;;;10.93;66.65;100302.81;4154082;28;20069;-64
2023/03/22 04:24:06;;;;;;;11.70;6.05;;;;;;;10.98;66.27;100302.88;4157336;28;20087;-63
2023/03/22 04:26:13;;;;;;;9.25;5.85;;;;;;;10.90;66.81;100292.38;4156313;28;20248;-64
2023/03/22 04:28:27;;;;;;;7.38;5.60;;;;;;;10.86;66.86;100295.81;4147572;28;20501;-63
2023/03/22 04:30:34;;;;;;;7.05;5.50;;;;;;;10.84;66.55;100294.94;4150504;28;20046;-64
2023/03/22 04:32:58;;;;;;;8.90;6.07;;;;;;;10.78;67.22;100285.34;4150485;28;20050;-64
2023/03/22 04:35:15;;;;;;;10.93;6.22;;;;;;;10.74;67.25;100288.75;4148390;28;20125;-64
2023/03/22 04:37:18;;;;;;;12.30;7.03;;;;;;;10.71;66.80;100280.06;4144076;28;20038;-64
2023/03/22 04:39:27;;;;;;;8.73;6.05;;;;;;;10.64;67.05;100289.50;4143944;28;20042;-64
2023/03/22 04:41:46;;;;;;;10.15;5.88;;;;;;;10.60;67.62;100282.53;4142446;28;20037;-64
2023/03/22 04:43:49;;;;;;;9.95;6.57;;;;;;;10.64;67.00;100281.72;4142901;28;20033;-64
2023/03/22 04:45:56;;;;;;;14.83;6.63;;;;;;;10.59;66.42;100278.22;4143917;28;20394;-64
2023/03/22 04:48:09;;;;;;;9.77;6.45;;;;;;;10.50;66.89;100283.28;4150161;28;20350;-64
2023/03/22 04:50:12;;;;;;;9.30;6.63;;;;;;;10.47;66.99;100281.53;4154196;28;20041;-64
2023/03/22 04:52:22;;;;;;;8.20;5.97;;;;;;;10.44;67.41;100279.78;4154362;28;20042;-64
2023/03/22 04:54:28;;;;;;;8.50;5.63;;;;;;;10.43;67.47;100278.03;4143299;28;20046;-64
2023/03/22 04:56:31;;;;;;;11.48;6.20;;;;;;;10.42;67.20;100286.66;4144129;28;20046;-64
2023/03/22 04:58:36;;;;;;;10.43;6.43;;;;;;;10.43;66.85;100288.41;4143922;28;20037;-64
2023/03/22 05:00:40;;;;;;;10.00;6.45;;;;;;;10.40;66.79;100288.38;4142293;28;20030;-64
2023/03/22 05:02:44;;;;;;;9.98;5.88;;;;;;;10.36;67.40;100281.41;4144167;28;20045;-64
2023/03/22 05:04:59;;;;;;;9.25;5.75;;;;;;;10.33;67.02;100291.72;4126077;28;20046;-63
2023/03/22 05:07:09;;;;;;;8.68;5.90;;;;;;;10.29;66.77;100285.63;4159697;28;20048;-64
2023/03/22 05:09:27;;;;;;;10.32;6.25;;;;;;;10.24;67.19;100289.88;4153386;28;20044;-64
2023/03/22 05:11:30;;;;;;;11.32;6.80;;;;;;;10.21;68.07;100286.38;4158708;28;20479;-64
2023/03/22 05:13:53;;;;;;;10.07;6.05;;;;;;;10.20;67.87;100289.81;4157371;28;20072;-64
2023/03/22 05:15:57;;;;;;;11.63;6.85;;;;;;;10.21;67.83;100292.44;4130342;28;20066;-64
2023/03/22 05:18:13;;;;;;;9.13;6.40;;;;;;;10.19;68.01;100290.66;4167438;28;20120;-64
2023/03/22 05:20:17;;;;;;;10.57;6.65;;;;;;;10.16;68.28;100293.22;4147572;28;20600;-64
2023/03/22 05:22:26;;;;;;;11.65;6.95;;;;;;;10.13;68.16;100291.47;4142621;28;20464;-64
2023/03/22 05:24:32;;;;;;;9.18;6.00;;;;;;;10.09;67.90;100293.16;4141397;28;20066;-64
2023/03/22 05:26:36;;;;;;;11.13;5.65;;;;;;;10.07;67.80;100287.06;4142966;28;20065;-64
2023/03/22 05:28:39;;;;;;;9.30;6.25;;;;;;;10.08;68.33;100291.41;4143550;28;20100;-64
2023/03/22 05:30:50;;;;;;;9.85;5.43;;;;;;;10.05;67.76;100291.38;4133069;28;20134;-64
2023/03/22 05:33:04;;;;;;;9.30;6.35;;;;;;;10.00;68.47;100292.16;4141374;28;20045;-64
2023/03/22 05:35:12;;;;;;;13.45;6.00;;;;;;;9.99;67.89;100298.19;4146722;28;20026;-64
2023/03/22 05:37:21;;;;;;;10.60;6.18;;;;;;;9.95;68.07;100305.06;4147291;28;20066;-64
2023/03/22 05:39:28;;;;;;;8.82;6.25;;;;;;;9.95;68.76;100305.94;4142072;28;20045;-64
2023/03/22 05:41:32;;;;;;;11.23;6.35;;;;;;;9.97;68.43;100298.16;4137846;28;20042;-64
2023/03/22 05:43:38;;;;;;;8.02;5.07;;;;;;;10.03;68.02;100310.38;4147719;28;20049;-64
2023/03/22 05:45:41;;;;;;;8.60;5.80;;;;;;;9.99;68.22;100309.47;4145169;28;20404;-64
2023/03/22 05:47:58;;;;;;;11.00;6.70;;;;;;;9.97;67.84;100303.38;4144655;28;20042;-64
2023/03/22 05:50:02;;;;;;;10.60;6.07;;;;;;;9.91;67.85;100300.69;4149828;28;20096;-64
2023/03/22 05:52:06;;;;;;;9.95;6.30;;;;;;;9.88;68.12;100308.44;4143353;28;20041;-64
2023/03/22 05:54:23;;;;;;;9.68;5.78;;;;;;;9.90;68.24;100312.81;4145556;28;20041;-61
2023/03/22 05:56:27;;;;;;;7.60;4.22;;;;;;;10.19;71.22;100303.66;4138389;28;20057;-66
2023/03/22 05:58:39;;;;;;;8.07;4.50;;;;;;;10.53;70.36;100309.31;4143680;28;20512;-66
2023/03/22 06:00:44;;;;;;;12.13;5.30;;;;;;;10.77;68.69;100307.00;4131381;28;20169;-66
2023/03/22 06:03:07;;;;;;;9.70;5.20;;;;;;;10.81;67.86;100310.50;4146621;28;20088;-65
2023/03/22 06:05:17;;;;;;;7.38;5.40;;;;;;;10.69;66.66;100305.16;4158393;28;20546;-65
2023/03/22 06:07:20;;;;;;;;;;;;;;;10.46;67.28;100309.25;4149361;28;20070;-64
2023/03/22 06:09:29;;;;;;;10.43;4.88;;;;;;;10.34;67.80;100303.91;4145137;28;19925;-63
2023/03/22 06:11:34;;;;;;;;;;;;;;;10.17;68.27;100310.56;4149364;28;20436;-63
2023/03/22 06:13:40;;;;;;;9.68;5.38;;;;;;;10.13;68.01;100305.34;4146709;28;19921;-61
2023/03/22 06:15:46;;;;;;;9.43;5.95;;;;;;;10.16;68.02;100314.00;4140155;28;20064;-63
2023/03/22 06:17:55;;;;;;;9.18;5.45;;;;;;;10.14;68.42;100312.25;4138656;28;20041;-63
2023/03/22 06:20:07;;;;;;;13.02;5.13;;;;;;;10.11;67.59;100311.34;4137136;28;20047;-73
2023/03/22 06:22:10;;;;;;;7.65;5.07;;;;;;;10.10;67.25;100317.41;4144809;28;20037;-72
2023/03/22 06:24:13;;;;;;;8.43;4.82;;;;;;;10.10;67.53;100317.41;4143035;28;20036;-72
2023/03/22 06:26:17;;;;;;;9.05;5.43;;;;;;;10.09;68.26;100313.03;4149261;28;20116;-68
2023/03/22 06:28:20;;;;;;;7.22;5.22;;;;;;;10.12;67.67;100307.91;4147310;28;20096;-69
2023/03/22 06:30:26;;;;;;;7.05;4.55;;;;;;;10.14;67.90;100299.28;4143901;28;20541;-72
2023/03/22 06:32:42;;;;;;;6.97;4.45;;;;;;;10.18;67.95;100299.31;4147014;28;20096;-75
2023/03/22 06:34:45;;;;;;;7.43;4.15;;;;;;;10.24;68.05;100302.00;4128610;28;20072;-64
2023/03/22 06:36:48;;;;;;;7.72;4.82;;;;;;;10.29;68.21;100300.31;4143737;28;20042;-64
2023/03/22 06:39:12;;;;;;;7.40;4.43;;;;;;;10.25;67.89;100304.63;4139470;28;20042;-64
2023/03/22 06:41:19;;;;;;;8.13;5.00;;;;;;;10.28;68.06;100307.25;4137722;28;20042;-71
2023/03/22 06:43:23;;;;;;;10.05;5.10;;;;;;;10.36;67.88;100307.38;4139202;28;20034;-68
2023/03/22 06:45:32;;;;;;;7.65;4.68;;;;;;;10.39;66.62;100307.41;4138493;28;20088;-75
2023/03/22 06:47:36;;;;;;;;;;;;;;;10.28;67.72;100309.00;4130820;28;20067;-74
2023/03/22 06:49:39;;;;;;;9.55;4.53;;;;;;;10.28;67.52;100314.19;4146261;28;20451;-64
2023/03/22 06:51:43;;;;;;;6.60;4.15;;;;;;;10.39;67.87;100317.81;4146169;28;20037;-63
2023/03/22 06:53:47;;;;;;;8.80;4.97;;;;;;;10.41;67.41;100310.94;4145402;28;20038;-64
2023/03/22 06:55:50;;;;;;;8.93;4.70;;;;;;;10.46;67.87;100319.63;4144962;28;20041;-64
2023/03/22 06:57:59;;;;;;;8.52;5.13;;;;;;;10.53;67.79;100320.59;4155798;28;20037;-64
2023/03/22 07:00:04;;;;;;;7.18;4.65;;;;;;;10.54;68.17;100330.16;4145973;28;20100;-64
2023/03/22 07:02:07;;;;;;;8.85;5.63;;;;;;;10.58;67.48;100318.03;4155831;28;20037;-64
2023/03/22 07:04:09;;;;;;;6.78;3.90;;;;;;;10.69;67.81;100329.44;4143754;28;20379;-64
2023/03/22 07:06:13;;;;;;;13.60;4.90;;;;;;;10.79;66.85;100326.09;4148011;28;20033;-66
2023/03/22 07:08:20;;;;;;;6.57;4.07;;;;;;;10.78;67.04;100332.16;4140969;28;20420;-63
2023/03/22 07:10:25;;;;;;;7.53;4.80;;;;;;;10.80;66.84;100326.97;4160789;28;20041;-64
2023/03/22 07:12:35;;;;;;;8.18;4.47;;;;;;;10.88;66.79;100329.63;4139653;28;20039;-65
2023/03/22 07:14:47;;;;;;;6.93;4.55;;;;;;;10.93;66.93;100336.63;4122989;28;20046;-64
2023/03/22 07:17:00;;;;;;;;;;;;;;;10.95;66.19;100334.06;4163585;28;20468;-64
2023/03/22 07:19:04;;;;;;;8.32;5.00;;;;;;;11.06;66.99;100323.78;4146393;28;19930;-65
2023/03/22 07:21:07;;;;;;;9.18;4.43;;;;;;;11.08;66.75;100341.16;4133242;28;20497;-64
2023/03/22 07:23:14;;;;;;;9.85;5.00;;;;;;;11.12;67.02;100332.50;4170340;28;20037;-65
2023/03/22 07:25:23;;;;;;;7.15;4.22;;;;;;;11.17;66.93;100337.78;4157077;28;20037;-65
2023/03/22 07:27:35;;;;;;;6.75;4.10;;;;;;;11.15;66.73;100335.13;4160212;28;20045;-64
2023/03/22 07:29:38;;;;;;;7.20;4.00;;;;;;;11.26;66.05;100334.38;4147194;28;20045;-65
2023/03/22 07:31:44;;;;;;;7.95;4.88;;;;;;;11.37;65.56;100339.66;4148497;28;20064;-64
2023/03/22 07:33:59;;;;;;;7.60;4.13;;;;;;;11.35;65.30;100347.47;4149483;28;20038;-64
2023/03/22 07:36:08;;;;;;;7.63;3.75;;;;;;;11.42;65.46;100338.84;4153546;28;20135;-65
2023/03/22 07:38:10;;;;;;;7.72;4.13;;;;;;;11.43;64.84;100339.72;4156370;28;20564;-65
2023/03/22 07:40:14;;;;;;;8.43;4.65;;;;;;;11.47;65.11;100337.16;4144065;28;20041;-64
2023/03/22 07:42:17;;;;;;;7.47;4.38;;;;;;;11.56;64.90;100328.53;4137550;28;20037;-64
2023/03/22 07:44:43;;;;;;;6.93;3.83;;;;;;;11.62;65.81;100325.13;4139619;28;20053;-65
2023/03/22 07:46:47;;;;;;;6.25;3.50;;;;;;;11.68;65.58;100325.16;4152191;28;20047;-65
2023/03/22 07:48:55;;;;;;;9.60;3.90;;;;;;;11.73;64.85;100328.69;4149286;28;20030;-65
2023/03/22 07:51:18;;;;;;;6.28;3.83;;;;;;;11.76;64.69;100333.91;4156495;28;20077;-65
2023/03/22 07:53:21;;;;;;;6.35;4.20;;;;;;;11.84;65.10;100333.97;4150572;28;20050;-64
2023/03/22 07:55:25;;;;;;;6.28;3.83;;;;;;;11.78;65.25;100332.19;4153605;28;20034;-64
2023/03/22 07:57:27;;;;;;;7.07;3.60;;;;;;;11.87;65.32;100334.88;4146393;28;20508;-64
2023/03/22 07:59:34;;;;;;;7.65;3.60;;;;;;;11.99;65.29;100323.69;4145309;28;20056;-64
2023/03/22 08:01:39;;;;;;;;;;;;;;;12.03;64.47;100322.84;4152010;28;20133;-64
2023/03/22 08:03:54;;;;;;;6.25;2.92;;;;;;;12.15;64.98;100327.25;4148846;28;19929;-60
2023/03/22 08:06:26;;;;;;;5.93;3.25;;;;;;;12.32;64.78;100321.25;4124760;28;20066;-59
2023/03/22 08:08:29;;;;;;;8.50;3.40;;;;;;;12.49;64.33;100323.94;4153949;28;20060;-60
2023/03/22 08:10:32;;;;;;;6.32;3.00;;;;;;;12.57;63.97;100323.09;4147389;28;20042;-65
2023/03/22 08:12:35;;;;;;;5.15;3.33;;;;;;;12.62;63.72;100317.91;4145720;28;20987;-65
2023/03/22 08:14:56;;;;;;;7.82;3.30;;;;;;;12.62;62.74;100319.66;4141459;28;20049;-65
2023/03/22 08:17:01;;;;;;;6.25;2.88;;;;;;;12.66;62.94;100318.78;4152826;28;20030;-65
2023/03/22 08:19:06;;;;;;;6.05;3.08;;;;;;;12.65;63.11;100324.88;4153909;28;20041;-65
2023/03/22 08:21:11;;;;;;;6.65;2.90;;;;;;;12.70;63.29;100318.81;4149164;28;20070;-65
2023/03/22 08:23:15;;;;;;;7.43;3.45;;;;;;;12.75;63.70;100311.00;4140372;28;20531;-65
2023/03/22 08:25:22;;;;;;;5.15;2.90;;;;;;;12.77;63.78;100309.25;4145161;28;20045;-65
2023/03/22 08:27:27;;;;;;;7.15;3.33;;;;;;;12.77;63.09;100311.00;4142049;28;20591;-65
2023/03/22 08:29:32;;;;;;;4.43;2.58;;;;;;;12.84;62.94;100305.78;4148903;28;20041;-65
2023/03/22 08:31:37;;;;;;;6.55;2.63;;;;;;;13.01;62.38;100307.56;4156933;28;20033;-65
2023/03/22 08:33:40;;;;;;;5.03;2.22;;;;;;;13.16;62.43;100310.19;4140874;28;20541;-65
2023/03/22 08:35:45;;;;;;;6.45;2.97;;;;;;;13.33;62.33;100298.91;4145134;28;20056;-66
2023/03/22 08:37:48;;;;;;;8.15;2.67;;;;;;;13.48;61.86;100290.22;4130299;28;20046;-66
2023/03/22 08:39:51;;;;;;;3.72;1.92;;;;;;;13.59;60.59;100291.97;4172353;23;20053;-63
2023/03/22 08:42:06;;;;;;;3.80;2.22;;;;;;;13.82;61.08;100296.28;4154680;28;20534;-63
2023/03/22 08:44:10;;;;;;;3.67;2.08;;;;;;;13.84;60.58;100297.13;4164528;28;20037;-63
2023/03/22 08:46:14;;;;;;;;;;;;;;;13.91;60.08;100285.81;4163028;28;20041;-63
2023/03/22 08:48:19;;;;;;;3.88;2.05;;;;;;;14.00;60.02;100289.28;4168291;28;19920;-63
2023/03/22 08:50:47;;;;;;;3.00;1.67;;;;;;;14.11;60.20;100295.34;4145721;28;20276;-63
2023/03/22 08:52:59;;;;;;;4.28;1.98;;;;;;;14.04;58.49;100288.41;4144637;28;20065;-63
2023/03/22 08:55:08;;;;;;;3.10;2.00;;;;;;;13.96;58.70;100286.69;4141930;28;20120;-63
2023/03/22 08:57:50;;;;;;;3.83;1.73;;;;;;;14.07;59.35;100286.63;4139638;28;20143;-64
2023/03/22 09:00:15;;;;;;;4.97;1.80;;;;;;;14.08;58.41;100285.78;4142997;28;20045;-63
2023/03/22 09:02:41;;;;;;;3.33;1.55;;;;;;;14.02;59.40;100282.28;4143282;28;20052;-63
2023/03/22 09:04:44;;;;;;;5.32;1.92;;;;;;;14.08;59.64;100279.69;4155400;28;20036;-64
2023/03/22 09:06:48;;;;;;;3.25;1.73;;;;;;;14.18;58.58;100280.50;4131070;28;20116;-64
2023/03/22 09:08:51;;;;;;;;;;;;;;;14.24;59.11;100276.13;4132415;28;20124;-64
2023/03/22 09:10:57;;;;;;;2.55;1.75;;;;;;;14.23;58.10;100274.38;4142217;28;20395;-64
2023/03/22 09:13:00;;;;;;;3.40;1.63;;;;;;;14.29;58.39;100274.38;4149964;28;20664;-63
2023/03/22 09:15:05;;;;;;;2.05;1.33;;;;;;;14.42;57.93;100269.09;4144256;28;20292;-62
2023/03/22 09:17:08;;;;;;;4.18;1.42;;;;;;;14.48;56.54;100271.66;4152892;28;20116;-68
2023/03/22 09:19:11;;;;;;;2.05;1.20;;;;;;;14.70;56.55;100264.59;4127515;28;20136;-68
2023/03/22 09:21:15;;;;;;;4.47;1.60;;;;;;;14.92;56.73;100267.09;4155908;28;20049;-65
2023/03/22 09:23:41;;;;;;;2.85;1.38;;;;;;;14.99;55.63;100264.41;4161230;28;20107;-67
2023/03/22 09:25:47;;;;;;;3.60;1.50;;;;;;;15.11;55.79;100255.63;4143046;28;20568;-66
2023/03/22 09:27:53;;;;;;;3.22;1.50;;;;;;;15.29;56.07;100259.81;4141395;28;20517;-66
2023/03/22 09:29:56;;;;;;;2.95;1.50;;;;;;;15.18;54.26;100259.03;4136346;28;20050;-67
2023/03/22 09:31:59;;;;;;;5.18;1.50;;;;;;;15.16;53.87;100250.34;4152537;28;20053;-66
2023/03/22 09:34:06;;;;;;;3.97;1.83;;;;;;;15.21;54.59;100251.16;4149632;28;20480;-66
2023/03/22 09:36:11;;;;;;;2.90;1.60;;;;;;;15.24;54.10;100252.88;4152055;28;20147;-66
2023/03/22 09:38:15;;;;;;;2.20;1.30;;;;;;;15.13;53.90;100247.75;4150014;28;20037;-66
2023/03/22 09:40:26;;;;;;;6.20;1.73;;;;;;;15.21;53.10;100256.38;4153308;28;20050;-66
2023/03/22 09:42:36;;;;;;;7.03;1.63;;;;;;;15.09;53.82;100241.66;4165527;28;20048;-66
2023/03/22 09:44:43;;;;;;;3.83;1.50;;;;;;;15.27;53.88;100248.47;4150660;28;20117;-66
2023/03/22 09:46:54;;;;;;;3.60;1.70;;;;;;;15.34;53.69;100251.91;4168510;28;20335;-66
2023/03/22 09:49:01;;;;;;;3.22;1.48;;;;;;;15.49;54.23;100248.28;4146642;28;20133;-67
2023/03/22 09:51:07;;;;;;;4.25;1.42;;;;;;;15.44;52.77;100240.47;4164090;28;20037;-66
2023/03/22 09:53:13;;;;;;;2.70;1.40;;;;;;;15.41;53.98;100250.13;4156890;28;20060;-67
2023/03/22 09:55:30;;;;;;;2.42;1.63;;;;;;;15.34;53.47;100250.16;4154327;28;20516;-66
2023/03/22 09:57:36;;;;;;;5.03;1.45;;;;;;;15.07;51.83;100237.28;4161552;28;20036;-66